»·PEaware :: FDX69 KSBP-KDVO

FDX69 :: KSBP-KDVO

FLIGHT INFORMATION

Flight Status: Arrived
Operator:
Federal Express
More flights by this operator :: More flights under this callsign
Pilot: Max W. (18193)
Aircraft: CESSNA 208 CARAVAN
(C208)
More flights by this aircraft type
Origin: KSBP San Luis Co Regl
United States
Destination: KDVO Gnoss
United States
More flights between these airports :: More routes between these airports
Route: +MQO V27 PYE
File this flight plan on PilotEdge
Remarks:
Altitude:
(Current/Filed)
8,000ft
Speed:
(Current/Filed)
160kts
Departed: 19-Feb-18 08:33 PM
Arrived: 19-Feb-18 10:08 PM
Distance/Time
Traveled:
197nm/1:35
Distance/Time
To Go:
Arrived

Flight Plot

Page will automatically refresh every two minutes.

Flight plan parsing failed; only flown route is shown


Map Options




Map Legend


Flown Route
Filed Route
Departure Airport
Arrival Airport
Navaid (VOR, NDB)
Fix

Horizontal Profiles

Position Reports

Time Latitude Longitude Heading Altitude Ground
Speed
19-Feb-18 20:31 35.239058 -120.641568 350 216ft 0kts
19-Feb-18 20:32 35.239058 -120.641568 350 216ft 0kts
19-Feb-18 20:33 35.239058 -120.641568 350 216ft 0kts
19-Feb-18 20:34 35.239058 -120.641568 350 216ft 0kts
19-Feb-18 20:35 35.236496 -120.637627 124 216ft 27kts
19-Feb-18 20:36 35.233996 -120.633131 125 216ft 0kts
19-Feb-18 20:37 35.233996 -120.633131 125 216ft 0kts
19-Feb-18 20:38 35.233453 -120.632351 178 216ft 0kts
19-Feb-18 20:39 35.232900 -120.633221 306 216ft 0kts
19-Feb-18 20:40 35.234140 -120.635395 305 216ft 70kts
19-Feb-18 20:41 35.251299 -120.669455 300 1213ft 134kts
19-Feb-18 20:42 35.270272 -120.711573 300 2192ft 150kts
19-Feb-18 20:43 35.288153 -120.755312 301 3456ft 135kts
19-Feb-18 20:44 35.273248 -120.795096 224 4403ft 160kts
19-Feb-18 20:45 35.237624 -120.829463 228 5184ft 166kts
19-Feb-18 20:46 35.212164 -120.867714 288 6004ft 138kts
19-Feb-18 20:47 35.226630 -120.904098 343 6959ft 123kts
19-Feb-18 20:48 35.261992 -120.902180 2 7670ft 132kts
19-Feb-18 20:49 35.299629 -120.907873 345 7935ft 148kts
19-Feb-18 20:50 35.340297 -120.919821 344 7971ft 151kts
19-Feb-18 20:51 35.381590 -120.931845 341 7965ft 153kts
19-Feb-18 20:52 35.412534 -120.967394 318 7968ft 153kts
19-Feb-18 20:53 35.443255 -121.004051 316 7968ft 154kts
19-Feb-18 20:54 35.472827 -121.042229 316 7950ft 154kts
19-Feb-18 20:55 35.502319 -121.080446 317 7949ft 154kts
19-Feb-18 20:56 35.531634 -121.118950 316 7951ft 154kts
19-Feb-18 20:57 35.559206 -121.154771 316 7957ft 155kts
19-Feb-18 20:58 35.588968 -121.193405 316 7957ft 156kts
19-Feb-18 20:59 35.619718 -121.229689 309 7957ft 156kts
19-Feb-18 21:00 35.644424 -121.273574 309 7980ft 153kts
19-Feb-18 21:01 35.669545 -121.315651 313 7957ft 151kts
19-Feb-18 21:02 35.704699 -121.341531 332 7957ft 148kts
19-Feb-18 21:03 35.740361 -121.367131 330 7956ft 148kts
19-Feb-18 21:04 35.776051 -121.393736 330 7956ft 154kts
19-Feb-18 21:05 35.811453 -121.424496 325 7955ft 156kts
19-Feb-18 21:06 35.846561 -121.455870 326 7955ft 156kts
19-Feb-18 21:07 35.882726 -121.484330 329 8009ft 155kts
19-Feb-18 21:08 35.920372 -121.510507 337 8010ft 155kts
19-Feb-18 21:09 35.960262 -121.530541 338 8027ft 155kts
19-Feb-18 21:10 36.001414 -121.546837 341 8027ft 155kts
19-Feb-18 21:11 36.042533 -121.563189 338 8026ft 155kts
19-Feb-18 21:12 36.081603 -121.585834 331 8027ft 155kts
19-Feb-18 21:13 36.119488 -121.611836 334 8025ft 155kts
19-Feb-18 21:14 36.159493 -121.631392 339 8026ft 155kts
19-Feb-18 21:15 36.196993 -121.656916 323 8026ft 155kts
19-Feb-18 21:16 36.232080 -121.688098 326 8025ft 155kts
19-Feb-18 21:17 36.267671 -121.718369 325 8025ft 156kts
19-Feb-18 21:18 36.303431 -121.749642 325 8025ft 157kts
19-Feb-18 21:19 36.337768 -121.781292 324 8026ft 153kts
19-Feb-18 21:20 36.371406 -121.813064 324 8024ft 152kts
19-Feb-18 21:21 36.404922 -121.844723 324 8023ft 151kts
19-Feb-18 21:22 36.438457 -121.876394 324 8023ft 151kts
19-Feb-18 21:23 36.472006 -121.908071 324 8023ft 151kts
19-Feb-18 21:24 36.505577 -121.939765 325 8022ft 151kts
19-Feb-18 21:25 36.539124 -121.971430 325 8022ft 151kts
19-Feb-18 21:26 36.572543 -122.002966 325 8029ft 152kts
19-Feb-18 21:27 36.606298 -122.034802 325 8028ft 152kts
19-Feb-18 21:28 36.640166 -122.066739 325 8028ft 152kts
19-Feb-18 21:29 36.673562 -122.099349 325 8028ft 152kts
19-Feb-18 21:30 36.707284 -122.131249 324 8030ft 153kts
19-Feb-18 21:31 36.741144 -122.163283 324 8030ft 153kts
19-Feb-18 21:32 36.776811 -122.193661 328 8030ft 159kts
19-Feb-18 21:33 36.814487 -122.223577 328 8028ft 161kts
19-Feb-18 21:34 36.852777 -122.252820 329 8032ft 161kts
19-Feb-18 21:35 36.888803 -122.281292 326 7998ft 153kts
19-Feb-18 21:36 36.922102 -122.312765 325 8046ft 145kts
19-Feb-18 21:37 36.954411 -122.343919 326 8048ft 150kts
19-Feb-18 21:38 36.988468 -122.373707 325 8036ft 149kts
19-Feb-18 21:39 37.021980 -122.404338 325 8036ft 149kts
19-Feb-18 21:40 37.055490 -122.435219 325 8018ft 149kts
19-Feb-18 21:41 37.089073 -122.466017 325 8000ft 150kts
19-Feb-18 21:42 37.122637 -122.496708 325 7999ft 149kts
19-Feb-18 21:43 37.161412 -122.513539 344 7998ft 149kts
19-Feb-18 21:44 37.202330 -122.521773 350 7998ft 149kts
19-Feb-18 21:45 37.243497 -122.528219 353 7997ft 149kts
19-Feb-18 21:46 37.285619 -122.531839 354 7998ft 155kts
19-Feb-18 21:47 37.328734 -122.537327 352 7998ft 156kts
19-Feb-18 21:48 37.371563 -122.546334 347 7997ft 156kts
19-Feb-18 21:49 37.414015 -122.557878 347 7997ft 156kts
19-Feb-18 21:50 37.456444 -122.570240 343 7996ft 156kts
19-Feb-18 21:51 37.497312 -122.588132 336 7997ft 156kts
19-Feb-18 21:52 37.536939 -122.610632 335 7996ft 156kts
19-Feb-18 21:53 37.575687 -122.635152 334 8002ft 157kts
19-Feb-18 21:54 37.615152 -122.658541 337 8002ft 157kts
19-Feb-18 21:55 37.655334 -122.680657 337 7699ft 169kts
19-Feb-18 21:56 37.700461 -122.703245 340 6666ft 171kts
19-Feb-18 21:57 37.746213 -122.720591 344 5812ft 175kts
19-Feb-18 21:58 37.794088 -122.735735 348 4786ft 181kts
19-Feb-18 21:59 37.842396 -122.750982 339 4012ft 172kts
19-Feb-18 22:00 37.883560 -122.774763 336 4010ft 158kts
19-Feb-18 22:01 37.923574 -122.797681 335 4097ft 157kts
19-Feb-18 22:02 37.965398 -122.816228 343 4007ft 160kts
19-Feb-18 22:03 38.006569 -122.835326 334 4041ft 160kts
19-Feb-18 22:04 38.044466 -122.864334 330 4103ft 156kts
19-Feb-18 22:05 38.085182 -122.861103 42 4015ft 174kts
19-Feb-18 22:06 38.093388 -122.794218 73 3150ft 199kts
19-Feb-18 22:07 38.108963 -122.728955 64 2691ft 187kts
19-Feb-18 22:08 38.125333 -122.668249 68 2523ft 187kts
19-Feb-18 22:09 38.139842 -122.604730 60 2341ft 180kts
19-Feb-18 22:10 38.153509 -122.560818 69 2112ft 189kts
19-Feb-18 22:11 38.155896 -122.504642 122 1020ft 167kts
19-Feb-18 22:12 38.140217 -122.510508 266 669ft 74kts
19-Feb-18 22:13 38.133376 -122.533946 260 652ft 81kts
19-Feb-18 22:14 38.141158 -122.554212 325 8ft 62kts
19-Feb-18 22:15 38.144205 -122.557217 147 7ft 24kts
19-Feb-18 22:16 38.140520 -122.557021 19 7ft 8kts
19-Feb-18 22:17 38.140681 -122.557254 280 7ft 0kts
19-Feb-18 22:18 38.140681 -122.557254 280 7ft 0kts
19-Feb-18 22:19 38.140681 -122.557254 280 7ft 0kts

Navigation Log

Ident Type
Flight plan parsing failed, navigation log unavailable